Time;durP1;ratioP1;P1;durP2;ratioP2;P2;SDS_P1;SDS_P2;PMS_P1;PMS_P2;Temp;Humidity;BMP_temperature;BMP_pressure;BME280_temperature;BME280_humidity;BME280_pressure;Samples;Min_cycle;Max_cycle;Signal;HPM_P1;HPM_P2
2021/11/20 08:21:18;;;;;;;1.42;0.63;;;8.30;99.90;;;;;;5341677;23;20048;-69
2021/11/20 08:24:03;;;;;;;0.93;0.93;;;8.40;99.90;;;;;;4914863;29;20070;-69
2021/11/20 08:26:50;;;;;;;1.00;0.75;;;8.40;99.90;;;;;;4905429;29;20099;-70
2021/11/20 08:29:37;;;;;;;7.05;1.20;;;8.50;99.90;;;;;;4916727;29;20179;-69
2021/11/20 08:32:26;;;;;;;0.73;0.73;;;8.50;99.90;;;;;;4916438;29;20054;-69
2021/11/20 08:35:11;;;;;;;0.47;0.47;;;8.50;99.90;;;;;;4915873;29;20046;-70
2021/11/20 08:37:56;;;;;;;0.47;0.47;;;8.60;99.90;;;;;;4916719;29;20091;-70
2021/11/20 08:40:44;;;;;;;0.22;0.22;;;8.70;99.90;;;;;;4915800;29;20030;-70
2021/11/20 08:43:29;;;;;;;0.28;0.28;;;8.70;99.90;;;;;;4916781;29;20416;-69
2021/11/20 08:46:13;;;;;;;0.20;0.20;;;8.70;99.90;;;;;;4916666;29;20120;-70
2021/11/20 08:48:58;;;;;;;0.20;0.20;;;8.80;99.90;;;;;;4915888;29;20091;-69
2021/11/20 08:51:45;;;;;;;0.43;0.43;;;8.80;99.90;;;;;;4902410;29;20082;-69
2021/11/20 08:54:30;;;;;;;0.60;0.60;;;8.80;99.90;;;;;;4915793;29;20075;-70
2021/11/20 08:57:14;;;;;;;1.65;1.52;;;8.90;99.90;;;;;;4916612;29;20078;-69
2021/11/20 08:59:59;;;;;;;6.05;1.85;;;8.90;99.90;;;;;;4916474;29;20510;-69
2021/11/20 09:03:03;;;;;;;1.65;1.55;;;9.00;99.90;;;;;;4915402;29;20060;-69
2021/11/20 09:05:50;;;;;;;3.88;2.88;;;9.00;99.90;;;;;;4916803;29;20047;-69
2021/11/20 09:08:58;;;;;;;0.25;0.25;;;9.10;99.90;;;;;;4916267;29;20047;-69
2021/11/20 09:12:08;;;;;;;0.20;0.20;;;9.10;99.90;;;;;;4916080;29;20050;-69
2021/11/20 09:14:57;;;;;;;1.17;1.13;;;9.10;99.90;;;;;;4915227;29;20074;-70
2021/11/20 09:17:43;;;;;;;1.75;1.27;;;9.10;99.90;;;;;;4916156;29;20136;-68
2021/11/20 09:20:30;;;;;;;1.65;0.70;;;9.10;99.90;;;;;;4915911;29;20501;-70
2021/11/20 09:23:15;;;;;;;1.60;1.50;;;9.10;99.90;;;;;;4914057;29;20428;-70
2021/11/20 09:25:59;;;;;;;0.20;0.20;;;9.10;99.90;;;;;;4914149;29;20452;-71
2021/11/20 09:28:46;;;;;;;0.20;0.20;;;9.20;99.90;;;;;;4915590;29;20168;-66
2021/11/20 09:31:32;;;;;;;0.75;0.75;;;9.20;99.90;;;;;;4880460;29;20120;-71
2021/11/20 09:44:50;;;;;;;3.15;2.00;;;9.20;99.90;;;;;;5065122;28;20429;-71
2021/11/20 09:47:28;;;;;;;1.60;1.50;;;9.40;99.90;;;;;;5016512;28;20045;-70
2021/11/20 09:50:11;;;;;;;3.10;1.33;;;9.40;99.90;;;;;;5029636;28;20026;-71
2021/11/20 09:52:38;;;;;;;0.65;0.65;;;9.40;99.90;;;;;;5058436;28;20072;-71
2021/11/20 09:55:08;;;;;;;3.33;1.52;;;9.50;99.90;;;;;;5029615;28;20109;-71
2021/11/20 09:57:47;;;;;;;0.10;0.10;;;9.50;99.90;;;;;;5029670;28;20033;-71
2021/11/20 10:01:03;;;;;;;0.55;0.55;;;9.50;99.90;;;;;;5059321;28;20069;-71
2021/11/20 10:03:40;;;;;;;0.50;0.50;;;9.60;99.90;;;;;;5029439;28;20482;-71
2021/11/20 10:06:31;;;;;;;0.85;0.70;;;9.60;99.90;;;;;;5027906;28;20034;-71
2021/11/20 10:09:32;;;;;;;1.98;1.52;;;9.70;99.90;;;;;;5029143;28;20037;-61
2021/11/20 10:12:14;;;;;;;0.52;0.52;;;9.70;99.90;;;;;;5032453;28;20041;-60
2021/11/20 10:14:49;;;;;;;1.65;0.77;;;9.70;99.90;;;;;;5029724;28;20060;-61
2021/11/20 10:17:38;;;;;;;0.17;0.17;;;9.70;99.90;;;;;;5029385;28;20521;-61
2021/11/20 10:20:33;;;;;;;0.35;0.35;;;9.80;99.90;;;;;;5029098;28;20539;-61
2021/11/20 10:23:39;;;;;;;0.10;0.10;;;9.80;99.90;;;;;;5029160;28;20141;-60
2021/11/20 10:26:27;;;;;;;0.43;0.43;;;9.90;99.90;;;;;;5028949;28;20088;-61
2021/11/20 10:29:45;;;;;;;0.13;0.13;;;10.00;99.90;;;;;;5020895;28;20018;-71
2021/11/20 10:32:21;;;;;;;0.25;0.25;;;9.90;99.90;;;;;;4989600;28;20135;-72
2021/11/20 10:34:56;;;;;;;0.38;0.38;;;10.20;99.90;;;;;;4989701;28;20094;-71
2021/11/20 10:37:51;;;;;;;0.20;0.20;;;10.20;99.90;;;;;;5003959;28;20085;-71
2021/11/20 10:40:59;;;;;;;1.85;0.52;;;10.40;99.90;;;;;;4989536;28;20054;-71
2021/11/20 10:43:36;;;;;;;4.38;1.98;;;10.40;99.90;;;;;;5003364;28;20137;-72
2021/11/20 10:46:46;;;;;;;0.73;0.73;;;10.40;99.90;;;;;;4989489;28;20054;-71
2021/11/20 10:49:27;;;;;;;0.55;0.55;;;10.40;99.90;;;;;;4988167;28;20027;-71
2021/11/20 10:52:17;;;;;;;;;;;10.50;99.90;;;;;;4989584;28;20034;-71
2021/11/20 10:54:58;;;;;;;0.10;0.10;;;10.50;99.90;;;;;;4998779;28;20278;-71
2021/11/20 10:57:56;;;;;;;0.73;0.73;;;10.60;99.90;;;;;;4976347;28;20037;-71
2021/11/20 11:00:31;;;;;;;1.35;1.25;;;10.70;99.90;;;;;;4976457;28;20045;-71
2021/11/20 11:03:48;;;;;;;0.43;0.43;;;10.70;99.90;;;;;;4991012;28;20053;-71
2021/11/20 11:06:58;;;;;;;1.17;1.08;;;10.80;99.90;;;;;;4974480;28;20046;-71
2021/11/20 11:09:57;;;;;;;1.35;1.17;;;10.90;99.90;;;;;;4975756;28;20480;-71
2021/11/20 11:13:00;;;;;;;0.70;0.70;;;10.80;99.90;;;;;;4975770;28;20497;-71
2021/11/20 11:16:24;;;;;;;0.65;0.65;;;10.50;99.90;;;;;;4973523;28;20046;-72
2021/11/20 11:19:02;;;;;;;1.38;1.27;;;10.60;99.90;;;;;;4976034;28;20042;-72
2021/11/20 11:21:58;;;;;;;1.88;1.45;;;10.80;99.90;;;;;;4989899;28;20034;-73
2021/11/20 11:25:05;;;;;;;0.98;0.88;;;10.90;99.90;;;;;;4975498;28;20039;-72
2021/11/20 11:27:48;;;;;;;2.63;1.27;;;11.00;99.90;;;;;;4975587;28;20495;-72
2021/11/20 11:30:38;;;;;;;4.90;1.13;;;11.10;99.90;;;;;;4975460;28;20038;-72
2021/11/20 11:33:05;;;;;;;0.03;0.03;;;11.10;99.90;;;;;;4975495;28;20030;-72
2021/11/20 11:36:17;;;;;;;0.47;0.47;;;11.20;99.90;;;;;;4975105;28;20043;-73
2021/11/20 11:39:33;;;;;;;0.73;0.73;;;11.30;99.90;;;;;;4973813;28;20049;-71
2021/11/20 11:42:30;;;;;;;0.40;0.40;;;11.10;99.90;;;;;;4974540;28;20039;-72
2021/11/20 11:45:19;;;;;;;0.52;0.52;;;10.90;99.90;;;;;;4989225;28;20043;-72
2021/11/20 11:48:12;;;;;;;1.23;0.88;;;11.00;99.90;;;;;;4983765;28;20435;-72
2021/11/20 11:50:49;;;;;;;0.80;0.40;;;11.00;99.90;;;;;;4988375;28;20093;-72
2021/11/20 11:53:58;;;;;;;0.75;0.75;;;11.40;99.90;;;;;;4975123;28;20046;-71
2021/11/20 11:56:40;;;;;;;0.32;0.32;;;11.50;99.90;;;;;;4975004;28;20530;-72
2021/11/20 11:59:37;;;;;;;0.40;0.40;;;11.60;99.90;;;;;;4973996;28;20030;-72
2021/11/20 12:02:15;;;;;;;0.55;0.55;;;11.90;99.90;;;;;;4990391;28;20034;-72
2021/11/20 12:04:48;;;;;;;0.22;0.22;;;11.90;99.90;;;;;;4974981;28;20041;-72
2021/11/20 12:07:41;;;;;;;1.50;1.40;;;11.40;99.90;;;;;;4974174;28;20123;-72
2021/11/20 12:10:22;;;;;;;2.05;1.63;;;11.60;99.90;;;;;;4973337;28;20047;-72
2021/11/20 12:13:11;;;;;;;1.20;0.57;;;11.40;99.90;;;;;;4974978;28;20070;-71
2021/11/20 12:15:38;;;;;;;0.45;0.45;;;11.70;99.90;;;;;;4989624;28;20081;-72
2021/11/20 12:18:39;;;;;;;1.17;1.08;;;11.70;99.90;;;;;;4974814;28;20039;-72
2021/11/20 12:21:21;;;;;;;1.67;1.35;;;11.50;99.90;;;;;;4988530;28;20038;-72
2021/11/20 12:23:53;;;;;;;2.00;1.27;;;11.40;99.90;;;;;;5004453;28;20030;-72
2021/11/20 12:26:29;;;;;;;0.90;0.90;;;11.40;99.90;;;;;;4992485;28;20133;-72
2021/11/20 12:28:59;;;;;;;0.22;0.22;;;11.40;99.90;;;;;;4994442;28;20046;-72
2021/11/20 12:31:34;;;;;;;3.10;1.58;;;11.30;99.90;;;;;;4993658;28;20054;-71
2021/11/20 12:34:21;;;;;;;0.10;0.10;;;11.30;99.90;;;;;;4976549;28;20038;-72
2021/11/20 12:37:00;;;;;;;0.50;0.50;;;11.30;99.90;;;;;;4993027;28;20478;-72
2021/11/20 12:40:15;;;;;;;0.20;0.20;;;11.40;99.90;;;;;;4993685;28;20034;-72
2021/11/20 12:43:08;;;;;;;0.43;0.43;;;11.30;99.90;;;;;;4980902;28;20046;-72
2021/11/20 12:46:05;;;;;;;1.45;0.88;;;11.20;99.90;;;;;;4993802;28;20125;-72
2021/11/20 12:49:03;;;;;;;0.30;0.30;;;10.90;99.90;;;;;;4992783;28;20118;-72
2021/11/20 12:51:53;;;;;;;0.32;0.32;;;10.90;99.90;;;;;;4993596;28;20100;-72
2021/11/20 12:54:56;;;;;;;0.15;0.15;;;10.90;99.90;;;;;;4992614;28;20479;-72
2021/11/20 12:57:45;;;;;;;0.08;0.08;;;10.90;99.90;;;;;;4993604;28;20030;-72
2021/11/20 13:00:17;;;;;;;0.00;0.00;;;10.90;99.90;;;;;;4992607;28;20471;-72
2021/11/20 13:03:01;;;;;;;0.20;0.20;;;10.90;99.90;;;;;;4993303;28;20034;-74
2021/11/20 13:05:27;;;;;;;2.00;1.25;;;10.80;99.90;;;;;;4992054;28;20058;-71
2021/11/20 13:08:05;;;;;;;1.65;0.75;;;10.90;99.90;;;;;;4993342;28;20131;-72
2021/11/20 13:10:57;;;;;;;0.82;0.82;;;10.90;99.90;;;;;;4992104;28;20034;-71
2021/11/20 13:13:46;;;;;;;6.45;1.85;;;10.90;99.90;;;;;;4993199;28;20031;-71
2021/11/20 13:16:27;;;;;;;0.80;0.80;;;10.80;99.90;;;;;;4993504;28;20062;-72
2021/11/20 13:19:10;;;;;;;1.60;1.50;;;10.90;99.90;;;;;;4992845;28;20495;-72
2021/11/20 13:21:44;;;;;;;0.40;0.40;;;10.90;99.90;;;;;;4993170;28;20118;-72
2021/11/20 13:24:18;;;;;;;0.08;0.08;;;10.90;99.90;;;;;;4992839;28;20038;-72
2021/11/20 13:26:59;;;;;;;0.15;0.15;;;11.00;99.90;;;;;;4993060;28;20483;-72
2021/11/20 13:29:44;;;;;;;0.57;0.57;;;11.00;99.90;;;;;;4992917;28;20030;-72
2021/11/20 13:32:17;;;;;;;0.65;0.65;;;10.90;99.90;;;;;;4993230;28;20100;-72
2021/11/20 13:34:53;;;;;;;0.20;0.10;;;10.80;99.90;;;;;;4993216;28;20066;-72
2021/11/20 13:37:20;;;;;;;2.10;1.55;;;10.90;99.90;;;;;;4991917;28;20018;-72
2021/11/20 13:39:46;;;;;;;1.77;1.38;;;10.90;99.90;;;;;;4993071;28;20034;-72
2021/11/20 13:42:12;;;;;;;0.90;0.90;;;10.90;99.90;;;;;;4992922;28;20033;-72
2021/11/20 13:44:39;;;;;;;0.52;0.52;;;10.90;99.90;;;;;;4992437;28;20050;-72
2021/11/20 13:47:07;;;;;;;0.13;0.13;;;10.90;99.90;;;;;;4991946;28;20109;-73
2021/11/20 13:49:34;;;;;;;0.50;0.50;;;10.90;99.90;;;;;;4992937;28;20088;-71
2021/11/20 13:52:16;;;;;;;1.45;1.17;;;10.80;99.90;;;;;;4992846;28;20081;-72
2021/11/20 13:54:54;;;;;;;0.45;0.45;;;10.80;99.90;;;;;;4975513;28;20441;-70
2021/11/20 13:57:22;;;;;;;0.13;0.13;;;10.80;99.90;;;;;;4991700;28;20031;-72
2021/11/20 13:59:48;;;;;;;0.20;0.20;;;10.80;99.90;;;;;;4991881;28;20070;-71
2021/11/20 14:02:19;;;;;;;1.08;0.98;;;10.70;99.90;;;;;;4992642;28;20153;-71
2021/11/20 14:04:46;;;;;;;0.38;0.38;;;10.70;99.90;;;;;;4992873;28;20045;-69
2021/11/20 14:07:14;;;;;;;3.33;1.17;;;10.70;99.90;;;;;;4991508;28;20548;-71
2021/11/20 14:09:50;;;;;;;0.73;0.73;;;10.70;99.90;;;;;;4992794;28;20041;-71
2021/11/20 14:12:17;;;;;;;0.15;0.15;;;10.70;99.90;;;;;;4992917;28;20062;-70
2021/11/20 14:14:43;;;;;;;2.17;1.73;;;10.70;99.90;;;;;;4992843;28;20081;-69
2021/11/20 14:17:16;;;;;;;0.38;0.38;;;10.70;99.90;;;;;;4991727;28;20038;-69
2021/11/20 14:19:43;;;;;;;0.75;0.75;;;10.70;99.90;;;;;;4992957;28;20045;-70
2021/11/20 14:22:13;;;;;;;0.32;0.32;;;10.60;99.90;;;;;;4992101;28;20039;-71
2021/11/20 14:24:42;;;;;;;0.38;0.38;;;10.60;99.90;;;;;;4991919;28;20042;-71
2021/11/20 14:27:15;;;;;;;0.13;0.13;;;10.60;99.90;;;;;;4992502;28;20034;-71
2021/11/20 14:29:50;;;;;;;0.57;0.57;;;10.50;99.90;;;;;;4993336;28;20034;-70
2021/11/20 14:32:21;;;;;;;0.35;0.35;;;10.40;99.90;;;;;;5011110;28;20022;-70
2021/11/20 14:34:48;;;;;;;;;;;10.30;99.90;;;;;;4996610;28;20098;-70
2021/11/20 14:37:20;;;;;;;1.05;0.98;;;10.30;99.90;;;;;;4994619;28;19914;-70
2021/11/20 14:39:54;;;;;;;0.63;0.63;;;10.20;99.90;;;;;;4995895;28;20062;-70
2021/11/20 14:42:24;;;;;;;4.13;1.38;;;10.20;99.90;;;;;;4995373;28;20559;-70
2021/11/20 14:45:19;;;;;;;0.65;0.65;;;10.10;99.90;;;;;;4996172;28;20034;-70
2021/11/20 14:47:49;;;;;;;0.15;0.15;;;10.20;99.90;;;;;;4994727;28;20042;-69
2021/11/20 14:50:28;;;;;;;1.27;1.17;;;10.10;99.90;;;;;;4996028;28;20062;-70
2021/11/20 14:53:08;;;;;;;0.32;0.32;;;10.10;99.90;;;;;;4996007;28;20097;-70
2021/11/20 14:55:45;;;;;;;1.08;1.00;;;10.10;99.90;;;;;;4995870;28;20030;-70
2021/11/20 14:58:15;;;;;;;0.13;0.13;;;10.10;99.90;;;;;;4996075;28;20053;-70
2021/11/20 15:00:51;;;;;;;1.67;0.90;;;10.10;99.90;;;;;;4995478;28;20073;-71
2021/11/20 15:03:17;;;;;;;0.28;0.28;;;10.10;99.90;;;;;;4995579;28;20459;-71
2021/11/20 15:05:44;;;;;;;0.30;0.30;;;10.10;99.90;;;;;;4995783;28;20026;-70
2021/11/20 15:08:10;;;;;;;1.30;1.15;;;10.10;99.90;;;;;;4995611;28;20030;-70
2021/11/20 15:10:36;;;;;;;0.73;0.73;;;10.10;99.90;;;;;;4995502;28;20041;-70
2021/11/20 15:13:03;;;;;;;3.00;1.10;;;10.10;99.90;;;;;;4995456;28;20483;-70
2021/11/20 15:15:30;;;;;;;2.75;1.05;;;10.10;99.90;;;;;;4995246;28;20046;-71
2021/11/20 15:17:56;;;;;;;2.55;1.30;;;10.10;99.90;;;;;;4995639;28;20115;-71
2021/11/20 15:20:22;;;;;;;9.32;2.92;;;10.00;99.90;;;;;;4977867;28;20026;-70
2021/11/20 15:22:48;;;;;;;0.30;0.30;;;10.00;99.90;;;;;;4995141;28;20056;-70
2021/11/20 15:25:15;;;;;;;0.55;0.55;;;10.00;99.90;;;;;;4993891;28;20045;-70
2021/11/20 15:27:43;;;;;;;1.25;1.08;;;9.90;99.90;;;;;;4995376;28;20501;-70
2021/11/20 15:30:12;;;;;;;0.00;0.00;;;9.90;99.90;;;;;;4995323;28;20058;-71
2021/11/20 15:32:38;;;;;;;2.45;0.45;;;9.80;99.90;;;;;;4994774;28;20157;-71
2021/11/20 15:35:05;;;;;;;0.28;0.28;;;9.80;99.90;;;;;;4995304;28;20114;-71
2021/11/20 15:37:31;;;;;;;0.00;0.00;;;9.70;99.90;;;;;;4995068;28;20537;-71
2021/11/20 15:39:57;;;;;;;0.38;0.38;;;9.70;99.90;;;;;;4994795;28;20042;-70
2021/11/20 15:42:23;;;;;;;0.60;0.60;;;9.70;99.90;;;;;;4994535;28;20030;-69
2021/11/20 15:44:49;;;;;;;0.25;0.25;;;9.70;99.90;;;;;;4994821;28;20042;-70
2021/11/20 15:47:16;;;;;;;0.32;0.32;;;9.70;99.90;;;;;;5009800;28;20108;-70
2021/11/20 15:49:42;;;;;;;0.20;0.20;;;9.60;99.90;;;;;;4994438;28;20069;-70
2021/11/20 15:52:08;;;;;;;2.80;1.77;;;9.60;99.90;;;;;;4994587;28;20057;-71
2021/11/20 15:54:36;;;;;;;1.98;1.88;;;9.50;99.90;;;;;;4993208;28;20386;-71
2021/11/20 15:57:03;;;;;;;1.17;0.93;;;9.50;99.90;;;;;;4994964;28;20034;-71
2021/11/20 15:59:29;;;;;;;2.30;1.30;;;9.50;99.90;;;;;;4994510;28;20034;-71
2021/11/20 16:01:55;;;;;;;3.40;2.30;;;9.50;99.90;;;;;;4994834;28;20549;-70
2021/11/20 16:04:21;;;;;;;4.40;1.67;;;9.60;99.90;;;;;;4994692;28;20442;-71
2021/11/20 16:06:47;;;;;;;1.58;1.50;;;9.50;99.90;;;;;;4994607;28;20093;-70
2021/11/20 16:09:14;;;;;;;1.10;0.80;;;9.40;99.90;;;;;;4994492;28;20096;-70
2021/11/20 16:11:40;;;;;;;3.03;1.40;;;9.40;99.90;;;;;;4993052;28;20434;-70
2021/11/20 16:14:06;;;;;;;1.17;1.05;;;9.40;99.90;;;;;;4993194;28;20062;-70
2021/11/20 16:16:33;;;;;;;0.20;0.20;;;9.40;99.90;;;;;;4994032;28;20581;-70
2021/11/20 16:18:59;;;;;;;3.05;1.90;;;9.30;99.90;;;;;;4994053;28;20046;-70
2021/11/20 16:21:24;;;;;;;8.43;0.98;;;9.30;99.90;;;;;;4994512;28;20038;-70
2021/11/20 16:23:50;;;;;;;0.50;0.50;;;9.20;99.90;;;;;;5009368;28;20117;-70
2021/11/20 16:26:16;;;;;;;3.63;1.02;;;9.20;99.90;;;;;;4994027;28;20036;-70
2021/11/20 16:28:42;;;;;;;3.50;1.35;;;9.20;99.90;;;;;;4994040;28;20104;-71
2021/11/20 16:31:10;;;;;;;1.40;1.33;;;9.20;99.90;;;;;;4993662;28;20237;-70
2021/11/20 16:33:37;;;;;;;0.17;0.17;;;9.20;99.90;;;;;;4993751;28;20049;-71
2021/11/20 16:36:03;;;;;;;1.60;1.50;;;9.10;99.90;;;;;;4994209;28;20030;-70
2021/11/20 16:39:00;;;;;;;0.88;0.88;;;9.20;99.90;;;;;;4993493;28;20041;-66
2021/11/20 16:41:31;;;;;;;2.05;1.75;;;9.10;99.90;;;;;;4993968;28;20034;-65
2021/11/20 16:43:59;;;;;;;3.60;1.80;;;9.10;99.90;;;;;;4992075;28;20077;-70
2021/11/20 16:46:25;;;;;;;0.17;0.17;;;9.10;99.90;;;;;;4993880;28;20081;-68
2021/11/20 16:48:53;;;;;;;1.52;1.33;;;9.10;99.90;;;;;;4993508;28;20410;-68
2021/11/20 16:54:09;;;;;;;0.85;0.85;;;9.00;99.90;;;;;;4991421;28;20376;-69
2021/11/20 16:56:36;;;;;;;0.25;0.25;;;9.00;99.90;;;;;;4993291;28;20042;-68
2021/11/20 16:59:04;;;;;;;2.83;2.10;;;9.00;99.90;;;;;;4992646;28;20084;-69
2021/11/20 17:01:30;;;;;;;0.63;0.63;;;9.00;99.90;;;;;;4992408;28;20564;-71
2021/11/20 17:03:56;;;;;;;2.00;1.23;;;8.90;99.90;;;;;;4992208;28;20031;-67
2021/11/20 17:06:22;;;;;;;0.52;0.52;;;8.90;99.90;;;;;;4993242;28;20034;-65
2021/11/20 17:08:49;;;;;;;0.85;0.85;;;8.90;99.90;;;;;;4993109;28;20038;-65
2021/11/20 17:11:17;;;;;;;1.23;1.20;;;8.90;99.90;;;;;;4993071;28;20383;-66
2021/11/20 17:13:44;;;;;;;0.25;0.25;;;8.90;99.90;;;;;;4993104;28;20039;-65
2021/11/20 17:16:11;;;;;;;2.08;1.20;;;8.80;99.90;;;;;;4993077;28;20544;-66
2021/11/20 17:18:37;;;;;;;0.13;0.13;;;8.80;99.90;;;;;;4992790;28;20482;-66
2021/11/20 17:21:22;;;;;;;0.88;0.45;;;8.80;99.90;;;;;;4993288;28;20041;-67
2021/11/20 17:23:49;;;;;;;0.98;0.98;;;8.80;99.90;;;;;;4994094;28;20088;-66
2021/11/20 17:26:18;;;;;;;0.20;0.20;;;8.70;99.90;;;;;;4991888;28;20030;-69
2021/11/20 17:28:45;;;;;;;0.73;0.73;;;8.70;99.90;;;;;;5007602;28;20142;-69
2021/11/20 17:31:12;;;;;;;2.38;1.45;;;8.70;99.90;;;;;;4991441;28;20030;-69
2021/11/20 17:33:40;;;;;;;0.40;0.40;;;8.70;99.90;;;;;;5007863;28;20041;-69
2021/11/20 17:36:06;;;;;;;0.88;0.85;;;8.60;99.90;;;;;;4993227;28;20030;-70
2021/11/20 17:38:32;;;;;;;1.63;0.88;;;8.60;99.90;;;;;;4991888;28;20045;-70
2021/11/20 17:40:58;;;;;;;0.47;0.47;;;8.60;99.90;;;;;;5008429;28;20030;-70
2021/11/20 17:43:24;;;;;;;1.02;0.98;;;8.50;99.90;;;;;;4991428;28;20039;-70
2021/11/20 17:45:50;;;;;;;3.17;1.13;;;8.50;99.90;;;;;;4993004;28;20100;-70
2021/11/20 17:48:16;;;;;;;0.52;0.50;;;8.50;99.90;;;;;;4991854;28;20089;-70
2021/11/20 17:50:42;;;;;;;3.55;1.40;;;8.50;99.90;;;;;;4992891;28;20093;-70
2021/11/20 17:53:08;;;;;;;1.55;1.45;;;8.40;99.90;;;;;;4992748;28;20045;-69
2021/11/20 17:55:35;;;;;;;0.10;0.10;;;8.50;99.90;;;;;;4992662;28;20034;-69
2021/11/20 17:58:05;;;;;;;0.20;0.20;;;8.50;99.90;;;;;;4991749;28;20088;-69
2021/11/20 18:00:38;;;;;;;0.43;0.43;;;8.40;99.90;;;;;;4991626;28;20027;-70
2021/11/20 18:03:06;;;;;;;0.10;0.10;;;8.40;99.90;;;;;;4991777;28;20105;-70
2021/11/20 18:05:32;;;;;;;0.40;0.40;;;8.40;99.90;;;;;;4994842;28;20034;-69
2021/11/20 18:07:58;;;;;;;1.17;1.08;;;8.30;99.90;;;;;;4996727;28;20494;-70
2021/11/20 18:10:31;;;;;;;0.00;0.00;;;8.30;99.90;;;;;;4996893;28;20046;-69
2021/11/20 18:12:57;;;;;;;0.20;0.20;;;8.30;99.90;;;;;;4996731;28;20034;-70
2021/11/20 18:15:23;;;;;;;0.55;0.55;;;8.20;99.90;;;;;;4996472;28;20053;-69
2021/11/20 18:17:49;;;;;;;0.10;0.10;;;8.20;99.90;;;;;;4994974;28;20046;-70
2021/11/20 18:20:15;;;;;;;3.10;0.82;;;8.20;99.90;;;;;;4996611;28;20027;-70
2021/11/20 18:22:41;;;;;;;0.05;0.05;;;8.20;99.90;;;;;;4996414;28;20038;-69
2021/11/20 18:25:11;;;;;;;0.30;0.30;;;8.10;99.90;;;;;;4995977;28;20378;-70
2021/11/20 18:27:37;;;;;;;0.32;0.32;;;8.10;99.90;;;;;;4975516;28;20105;-70
2021/11/20 18:30:07;;;;;;;0.52;0.52;;;8.20;99.90;;;;;;4976786;28;20039;-69
2021/11/20 18:32:33;;;;;;;0.00;0.00;;;8.20;99.90;;;;;;4976844;28;20027;-70
2021/11/20 18:34:59;;;;;;;3.20;2.92;;;8.10;99.90;;;;;;4976855;28;20033;-69
2021/11/20 18:37:24;;;;;;;0.00;0.00;;;8.10;99.90;;;;;;4977004;28;20035;-70
2021/11/20 18:39:50;;;;;;;0.10;0.10;;;8.00;99.90;;;;;;4975517;28;20027;-69
2021/11/20 18:42:16;;;;;;;2.08;1.10;;;8.00;99.90;;;;;;4976576;28;20442;-70
2021/11/20 18:44:42;;;;;;;2.47;1.40;;;8.00;99.90;;;;;;4976212;28;20047;-70
2021/11/20 18:47:08;;;;;;;0.10;0.10;;;8.10;99.90;;;;;;4991861;28;20089;-69
2021/11/20 18:49:35;;;;;;;0.20;0.20;;;8.10;99.90;;;;;;4976456;28;20261;-69
2021/11/20 18:52:02;;;;;;;1.48;0.98;;;8.00;99.90;;;;;;4976438;28;20027;-70
2021/11/20 18:54:28;;;;;;;0.20;0.20;;;8.10;99.90;;;;;;4991435;28;20042;-69
2021/11/20 18:56:55;;;;;;;0.10;0.10;;;8.10;99.90;;;;;;4976450;28;20033;-69
2021/11/20 18:59:21;;;;;;;0.47;0.47;;;8.10;99.90;;;;;;4976262;28;20382;-69
2021/11/20 19:01:47;;;;;;;0.52;0.52;;;8.00;99.90;;;;;;4976153;28;20376;-69
2021/11/20 19:04:13;;;;;;;0.52;0.47;;;8.00;99.90;;;;;;4976173;28;20039;-69
2021/11/20 19:06:40;;;;;;;0.28;0.28;;;8.10;99.90;;;;;;4976189;28;20424;-70
2021/11/20 19:09:06;;;;;;;0.47;0.32;;;8.10;99.90;;;;;;4974890;28;20483;-69
2021/11/20 19:11:32;;;;;;;0.52;0.52;;;8.10;99.90;;;;;;4976128;28;20037;-69
2021/11/20 19:14:01;;;;;;;0.22;0.22;;;8.20;99.90;;;;;;4990968;28;20048;-69
2021/11/20 19:16:28;;;;;;;3.10;0.68;;;8.10;99.90;;;;;;4974524;28;20387;-69
2021/11/20 19:18:56;;;;;;;0.30;0.30;;;8.10;99.90;;;;;;4990979;28;20035;-69
2021/11/20 19:21:22;;;;;;;5.82;1.13;;;8.10;99.90;;;;;;4974590;28;20031;-69
2021/11/20 19:23:48;;;;;;;0.77;0.77;;;8.10;99.90;;;;;;4975732;28;20035;-70
2021/11/20 19:26:14;;;;;;;0.47;0.47;;;8.10;99.90;;;;;;4991041;28;20110;-69
2021/11/20 19:28:47;;;;;;;0.95;0.95;;;8.10;99.90;;;;;;4975925;28;20039;-68
2021/11/20 19:31:17;;;;;;;0.30;0.30;;;8.10;99.90;;;;;;4974757;28;20031;-69
2021/11/20 19:33:43;;;;;;;0.47;0.32;;;8.10;99.90;;;;;;4990655;28;20030;-68
2021/11/20 19:36:09;;;;;;;5.57;1.00;;;8.10;99.90;;;;;;4975863;28;20031;-69
2021/11/20 19:38:38;;;;;;;1.55;1.40;;;8.10;99.90;;;;;;4975901;28;20044;-69
2021/11/20 19:41:10;;;;;;;0.10;0.10;;;8.10;99.90;;;;;;4976129;28;20026;-69
2021/11/20 19:43:36;;;;;;;0.10;0.10;;;8.10;99.90;;;;;;4989896;28;20092;-69
2021/11/20 19:46:04;;;;;;;0.20;0.20;;;8.10;99.90;;;;;;4975657;28;20038;-69
2021/11/20 19:48:31;;;;;;;1.40;1.30;;;8.10;99.90;;;;;;4975702;28;20034;-69
2021/11/20 19:50:57;;;;;;;3.20;1.17;;;8.10;99.90;;;;;;4975487;28;20023;-69
2021/11/20 19:53:23;;;;;;;0.10;0.10;;;8.00;99.90;;;;;;4990546;28;20035;-69
2021/11/20 19:55:49;;;;;;;0.60;0.60;;;8.10;99.90;;;;;;4975475;28;20038;-69
2021/11/20 19:58:15;;;;;;;0.15;0.15;;;8.10;99.90;;;;;;4975289;28;20082;-69
2021/11/20 20:00:44;;;;;;;0.40;0.40;;;8.10;99.90;;;;;;4990256;28;20035;-69
2021/11/20 20:03:11;;;;;;;0.20;0.20;;;8.10;99.90;;;;;;4975365;28;20031;-69
2021/11/20 20:05:45;;;;;;;1.42;1.33;;;8.00;99.90;;;;;;4989663;28;20039;-69
2021/11/20 20:08:14;;;;;;;0.25;0.25;;;8.00;99.90;;;;;;4975127;28;20030;-69
2021/11/20 20:10:40;;;;;;;0.35;0.35;;;8.00;99.90;;;;;;5005167;28;20081;-70
2021/11/20 20:13:06;;;;;;;0.30;0.30;;;8.00;99.90;;;;;;5009330;28;20499;-68
2021/11/20 20:15:32;;;;;;;0.98;0.98;;;7.90;99.90;;;;;;4994654;28;20042;-68
2021/11/20 20:18:00;;;;;;;1.38;1.27;;;8.00;99.90;;;;;;4994033;28;20062;-69
2021/11/20 20:20:28;;;;;;;0.57;0.57;;;7.90;99.90;;;;;;5009162;28;20490;-68
2021/11/20 20:22:57;;;;;;;0.57;0.57;;;7.90;99.90;;;;;;4992613;28;20505;-68
2021/11/20 20:25:25;;;;;;;0.00;0.00;;;7.90;99.90;;;;;;4993259;28;20038;-68
2021/11/20 20:27:52;;;;;;;0.20;0.20;;;7.90;99.90;;;;;;4992231;28;20038;-68
2021/11/20 20:30:21;;;;;;;0.22;0.22;;;7.90;99.90;;;;;;4994207;28;20037;-68
2021/11/20 20:32:54;;;;;;;0.25;0.25;;;7.80;99.90;;;;;;4994110;28;20030;-68
2021/11/20 20:35:20;;;;;;;1.33;0.57;;;7.80;99.90;;;;;;4993981;28;20030;-68
2021/11/20 20:37:46;;;;;;;0.40;0.40;;;7.80;99.90;;;;;;4994075;28;20026;-68
2021/11/20 20:40:12;;;;;;;0.50;0.25;;;7.80;99.90;;;;;;4993723;28;20096;-69
2021/11/20 20:42:39;;;;;;;0.35;0.35;;;7.80;99.90;;;;;;4976281;28;21160;-68
2021/11/20 20:45:06;;;;;;;0.30;0.30;;;7.70;99.90;;;;;;4993369;28;20041;-68
2021/11/20 20:47:33;;;;;;;0.28;0.28;;;7.70;99.90;;;;;;4993459;28;20072;-69
2021/11/20 20:50:00;;;;;;;0.20;0.20;;;7.60;99.90;;;;;;4992358;28;20045;-69
2021/11/20 20:52:27;;;;;;;0.35;0.35;;;7.70;99.90;;;;;;4992359;28;20030;-68
2021/11/20 20:54:53;;;;;;;0.22;0.22;;;7.60;99.90;;;;;;4993559;28;20034;-69
2021/11/20 20:57:19;;;;;;;0.40;0.40;;;7.50;99.90;;;;;;5008457;28;20498;-69
2021/11/20 20:59:45;;;;;;;0.35;0.35;;;7.60;99.90;;;;;;4993607;28;20081;-69
2021/11/20 21:02:14;;;;;;;0.73;0.73;;;7.50;99.90;;;;;;4993609;28;20042;-69
2021/11/20 21:04:40;;;;;;;0.47;0.47;;;7.50;99.90;;;;;;4992461;28;20070;-69
2021/11/20 21:07:06;;;;;;;0.30;0.30;;;7.60;99.90;;;;;;5008749;28;20026;-68
2021/11/20 21:09:33;;;;;;;0.90;0.85;;;7.50;99.90;;;;;;4975922;28;20045;-68
2021/11/20 21:11:58;;;;;;;0.28;0.28;;;7.50;99.90;;;;;;4993485;28;20039;-68
2021/11/20 21:14:24;;;;;;;0.73;0.63;;;7.50;99.90;;;;;;4993328;28;20034;-68
2021/11/20 21:16:52;;;;;;;0.30;0.30;;;7.50;99.90;;;;;;4993069;28;20030;-69
2021/11/20 21:22:09;;;;;;;0.17;0.17;;;7.40;99.90;;;;;;4993331;28;20030;-68
2021/11/20 21:24:44;;;;;;;0.05;0.05;;;7.40;99.90;;;;;;4993329;28;20037;-68
2021/11/20 21:27:12;;;;;;;1.67;1.27;;;7.40;99.90;;;;;;4991774;28;20125;-68
2021/11/20 21:29:38;;;;;;;0.55;0.52;;;7.40;99.90;;;;;;4993324;28;20054;-68
2021/11/20 21:32:11;;;;;;;0.98;0.32;;;7.40;99.90;;;;;;4993258;28;20043;-69
2021/11/20 21:34:38;;;;;;;1.02;1.02;;;7.30;99.90;;;;;;4993337;28;20378;-70
2021/11/20 21:37:06;;;;;;;1.40;0.98;;;7.30;99.90;;;;;;4993026;28;20426;-68
2021/11/20 21:39:33;;;;;;;0.75;0.75;;;7.30;99.90;;;;;;4991527;28;20639;-69
2021/11/20 21:42:00;;;;;;;0.47;0.47;;;7.30;99.90;;;;;;4991849;28;20035;-69
2021/11/20 21:44:27;;;;;;;1.30;1.20;;;7.20;99.90;;;;;;4992592;28;20061;-68
2021/11/20 21:46:53;;;;;;;1.80;1.27;;;7.20;99.90;;;;;;4992856;28;20117;-68
2021/11/20 21:49:22;;;;;;;1.98;0.45;;;7.20;99.90;;;;;;4993030;28;20037;-68
2021/11/20 21:51:48;;;;;;;0.45;0.45;;;7.10;99.90;;;;;;4993145;28;20030;-69
2021/11/20 21:54:15;;;;;;;0.40;0.40;;;7.10;99.90;;;;;;4992833;28;20121;-69
2021/11/20 21:56:42;;;;;;;0.52;0.52;;;7.10;99.90;;;;;;4993010;28;20391;-69
2021/11/20 21:59:08;;;;;;;0.10;0.10;;;7.10;99.90;;;;;;4992606;28;20037;-68
2021/11/20 22:01:34;;;;;;;0.10;0.10;;;7.00;99.90;;;;;;4992673;28;20041;-70
2021/11/20 22:04:00;;;;;;;0.63;0.63;;;6.90;99.90;;;;;;4992680;28;20058;-71
2021/11/20 22:06:26;;;;;;;0.90;0.90;;;6.90;99.90;;;;;;4993006;28;20069;-68
2021/11/20 22:08:52;;;;;;;0.15;0.15;;;6.90;99.90;;;;;;4992794;28;20367;-69